Time;durP1;ratioP1;P1;durP2;ratioP2;P2;SDS_P1;SDS_P2;PMS_P1;PMS_P2;Temp;Humidity;BMP_temperature;BMP_pressure;BME280_temperature;BME280_humidity;BME280_pressure;Samples;Min_cycle;Max_cycle;Signal;HPM_P1;HPM_P2
2022/01/25 00:31:10;;;;;;;47.70;34.63;;;;;;;2.48;100.00;103344.56;5284357;28;20490;-71
2022/01/25 00:33:47;;;;;;;50.00;34.03;;;;;;;2.49;100.00;103348.00;5272847;28;20195;-71
2022/01/25 00:36:22;;;;;;;49.72;35.95;;;;;;;2.53;100.00;103342.78;5287560;28;20114;-71
2022/01/25 00:38:54;;;;;;;47.08;34.45;;;;;;;2.50;100.00;103349.72;5288352;28;20471;-71
2022/01/25 00:41:26;;;;;;;52.10;36.58;;;;;;;2.52;100.00;103354.00;5287021;28;20293;-71
2022/01/25 00:44:01;;;;;;;50.42;35.58;;;;;;;2.52;100.00;103346.25;5286632;28;20028;-71
2022/01/25 00:46:32;;;;;;;50.88;35.72;;;;;;;2.55;100.00;103353.13;5274488;28;20024;-70
2022/01/25 00:49:04;;;;;;;54.40;38.60;;;;;;;2.57;100.00;103352.22;5285293;28;20039;-71
2022/01/25 00:52:04;;;;;;;49.47;36.00;;;;;;;2.59;100.00;103342.72;5285662;28;20027;-71
2022/01/25 00:54:32;;;;;;;49.78;34.45;;;;;;;2.64;100.00;103342.66;5285821;28;20036;-70
2022/01/25 00:57:04;;;;;;;50.30;35.70;;;;;;;2.60;100.00;103334.06;5283216;28;20024;-70
2022/01/25 00:59:35;;;;;;;52.38;35.38;;;;;;;2.58;100.00;103340.16;5280196;28;20029;-71
2022/01/25 01:02:10;;;;;;;47.78;33.95;;;;;;;2.62;100.00;103339.25;5285461;28;20158;-70
2022/01/25 01:04:42;;;;;;;48.53;34.75;;;;;;;2.58;100.00;103335.84;5285869;28;20114;-71
2022/01/25 01:07:15;;;;;;;52.60;35.13;;;;;;;2.50;100.00;103316.97;5286250;28;20031;-70
2022/01/25 01:09:50;;;;;;;52.47;35.97;;;;;;;2.63;100.00;103330.59;5286905;28;20619;-70
2022/01/25 01:29:10;;;;;;;44.75;33.83;;;;;;;2.77;100.00;103346.84;5284285;28;20123;-70
2022/01/25 01:34:46;;;;;;;48.58;35.10;;;;;;;2.71;100.00;103346.91;5285632;28;20497;-70
2022/01/25 01:42:54;;;;;;;52.22;35.35;;;;;;;2.71;100.00;103348.63;5281725;28;20035;-70
2022/01/25 01:45:40;;;;;;;47.95;34.75;;;;;;;2.81;100.00;103348.50;5280315;28;20445;-72
2022/01/25 01:48:25;;;;;;;50.13;36.67;;;;;;;2.67;100.00;103342.63;5273440;28;20486;-70
2022/01/25 01:51:04;;;;;;;51.40;35.90;;;;;;;2.76;100.00;103341.66;5286015;28;20029;-71
2022/01/25 01:53:35;;;;;;;52.33;37.40;;;;;;;2.75;100.00;103356.34;5285110;28;20255;-70
2022/01/25 01:56:07;;;;;;;51.33;37.20;;;;;;;2.78;100.00;103345.94;5286876;28;20056;-71
2022/01/25 01:58:39;;;;;;;53.78;36.45;;;;;;;2.78;100.00;103347.69;5285265;28;20016;-71
2022/01/25 02:01:14;;;;;;;49.55;36.28;;;;;;;2.80;100.00;103346.78;5286243;28;20045;-70
2022/01/25 02:03:46;;;;;;;53.28;36.35;;;;;;;2.78;100.00;103363.22;5291372;28;20086;-71
2022/01/25 02:06:18;;;;;;;50.78;37.03;;;;;;;2.78;100.00;103347.69;5290182;28;20040;-70
2022/01/25 02:08:49;;;;;;;48.63;35.10;;;;;;;2.81;100.00;103347.66;5292682;28;20028;-70
2022/01/25 02:11:23;;;;;;;54.60;37.85;;;;;;;2.87;100.00;103345.81;5293254;28;20020;-70
2022/01/25 02:13:55;;;;;;;51.67;37.30;;;;;;;2.87;100.00;103340.66;5292703;28;20024;-70
2022/01/25 02:24:43;;;;;;;53.70;36.70;;;;;;;2.90;100.00;103340.63;5291259;28;20044;-71
2022/01/25 02:27:15;;;;;;;57.35;38.88;;;;;;;2.93;100.00;103331.97;5292574;28;20077;-70
2022/01/25 02:29:47;;;;;;;53.92;36.90;;;;;;;2.96;100.00;103333.66;5288068;28;20063;-70
2022/01/25 02:32:19;;;;;;;52.17;37.88;;;;;;;2.91;100.00;103321.59;5270172;28;20029;-71
2022/01/25 02:34:50;;;;;;;53.38;38.17;;;;;;;2.96;100.00;103323.31;5278982;28;20505;-71
2022/01/25 02:37:21;;;;;;;54.45;38.92;;;;;;;2.98;100.00;103321.53;5276858;28;20427;-69
2022/01/25 02:39:53;;;;;;;52.22;36.47;;;;;;;2.96;100.00;103324.16;5279374;28;20032;-70
2022/01/25 02:42:25;;;;;;;51.97;38.28;;;;;;;2.99;100.00;103318.91;5275838;28;20024;-70
2022/01/25 02:44:56;;;;;;;54.28;36.75;;;;;;;2.98;100.00;103313.78;5283972;28;20032;-70
2022/01/25 02:50:17;;;;;;;53.03;37.60;;;;;;;3.02;100.00;103313.72;5285566;28;20552;-70
2022/01/25 02:52:50;;;;;;;50.97;38.10;;;;;;;3.02;100.00;103308.53;5280213;28;20060;-70
2022/01/25 02:55:21;;;;;;;55.22;38.67;;;;;;;3.00;100.00;103314.63;5286338;28;20076;-69
2022/01/25 02:57:53;;;;;;;54.67;38.92;;;;;;;3.04;100.00;103311.13;5285733;28;20040;-70
2022/01/25 03:00:24;;;;;;;49.25;38.17;;;;;;;3.05;100.00;103308.50;5269482;28;20035;-70
2022/01/25 03:02:56;;;;;;;50.25;38.05;;;;;;;3.05;100.00;103308.50;5270479;28;20470;-71
2022/01/25 03:05:28;;;;;;;54.53;38.38;;;;;;;3.08;100.00;103318.81;5281216;28;20029;-70
2022/01/25 03:07:59;;;;;;;51.05;37.25;;;;;;;3.01;100.00;103300.78;5280791;28;20024;-71
2022/01/25 03:10:36;;;;;;;54.33;37.60;;;;;;;3.13;100.00;103304.06;5278555;28;20188;-70
2022/01/25 03:13:13;;;;;;;55.03;38.08;;;;;;;3.08;100.00;103299.84;5282697;28;20456;-70
2022/01/25 03:21:20;;;;;;;56.47;39.70;;;;;;;3.14;100.00;103290.25;5263311;28;20047;-70
2022/01/25 03:23:53;;;;;;;57.58;40.28;;;;;;;3.11;100.00;103285.09;5280430;28;20033;-71
2022/01/25 03:26:25;;;;;;;53.97;37.78;;;;;;;3.13;100.00;103291.09;5281567;28;20501;-71
2022/01/25 03:28:57;;;;;;;52.20;37.75;;;;;;;3.15;100.00;103299.72;5271477;28;20389;-72
2022/01/25 03:31:28;;;;;;;52.42;37.10;;;;;;;3.15;100.00;103299.72;5284559;28;20024;-71
2022/01/25 03:33:59;;;;;;;56.58;38.40;;;;;;;3.13;100.00;103298.88;5287616;28;20516;-71
2022/01/25 03:36:31;;;;;;;55.55;38.65;;;;;;;3.11;100.00;103286.84;5289705;28;20019;-71
2022/01/25 03:39:05;;;;;;;52.15;37.90;;;;;;;3.13;100.00;103282.47;5275836;28;20028;-71
2022/01/25 03:41:36;;;;;;;56.58;39.20;;;;;;;3.12;100.00;103289.41;5286722;28;20711;-71
2022/01/25 03:44:08;;;;;;;54.03;38.33;;;;;;;3.11;100.00;103290.28;5285371;28;20478;-71
2022/01/25 03:46:54;;;;;;;51.78;36.75;;;;;;;3.12;100.00;103280.78;5275806;28;20028;-71
2022/01/25 03:52:25;;;;;;;49.60;35.88;;;;;;;3.11;100.00;103286.84;5285134;28;20040;-71
2022/01/25 03:54:58;;;;;;;48.40;34.83;;;;;;;3.07;100.00;103288.63;5286958;28;20093;-69
2022/01/25 03:57:29;;;;;;;52.92;38.10;;;;;;;3.09;100.00;103288.59;5284567;28;20016;-70
2022/01/25 04:00:01;;;;;;;51.53;35.58;;;;;;;3.12;100.00;103294.59;5285567;28;20098;-70
2022/01/25 04:02:33;;;;;;;54.63;37.85;;;;;;;3.13;100.00;103291.09;5288040;28;20028;-70
2022/01/25 04:05:08;;;;;;;51.47;35.80;;;;;;;3.15;100.00;103304.06;5288267;28;20036;-70
2022/01/25 04:07:48;;;;;;;53.42;36.75;;;;;;;3.13;100.00;103303.19;5286997;28;20056;-70
2022/01/25 04:10:20;;;;;;;51.80;36.92;;;;;;;3.07;100.00;103292.91;5285347;28;20162;-70
2022/01/25 04:12:52;;;;;;;51.05;36.85;;;;;;;3.10;100.00;103298.91;5288945;28;20575;-70
2022/01/25 04:15:23;;;;;;;51.50;36.60;;;;;;;3.10;100.00;103298.06;5289637;28;20012;-70
2022/01/25 04:18:03;;;;;;;55.03;37.55;;;;;;;3.13;100.00;103300.63;5286723;28;20128;-70
2022/01/25 04:20:35;;;;;;;53.08;37.05;;;;;;;3.13;100.00;103300.63;5285436;28;20390;-70
2022/01/25 04:25:56;;;;;;;49.67;35.50;;;;;;;3.15;100.00;103294.53;5286179;28;20076;-70
2022/01/25 04:28:27;;;;;;;53.28;36.08;;;;;;;3.13;100.00;103293.69;5282749;28;20450;-70
2022/01/25 04:30:59;;;;;;;55.45;36.88;;;;;;;3.13;100.00;103291.09;5275607;28;20090;-70
2022/01/25 04:33:40;;;;;;;51.15;37.22;;;;;;;3.19;100.00;103290.19;5283272;28;20028;-70
2022/01/25 04:36:50;;;;;;;52.10;37.00;;;;;;;3.19;100.00;103285.00;5272552;28;20441;-70
2022/01/25 04:53:38;;;;;;;55.72;35.97;;;;;;;3.26;100.00;103289.22;5278528;28;20116;-70
2022/01/25 04:56:24;;;;;;;54.30;36.83;;;;;;;3.26;100.00;103280.56;5272703;28;20028;-70
2022/01/25 04:59:09;;;;;;;48.30;35.55;;;;;;;3.29;100.00;103283.97;5268799;28;20060;-70
2022/01/25 05:01:42;;;;;;;49.80;35.30;;;;;;;3.29;100.00;103280.50;5271515;28;20481;-71
2022/01/25 05:04:20;;;;;;;49.28;36.35;;;;;;;3.26;100.00;103283.16;5280357;28;20473;-70
2022/01/25 05:06:55;;;;;;;49.63;34.60;;;;;;;3.27;100.00;103282.28;5268554;28;20101;-70
2022/01/25 05:09:26;;;;;;;57.00;35.80;;;;;;;3.26;100.00;103277.97;5277990;28;20074;-70
2022/01/25 05:11:58;;;;;;;53.28;37.42;;;;;;;3.28;100.00;103269.31;5275605;28;20024;-70
2022/01/25 05:14:34;;;;;;;53.78;36.35;;;;;;;3.29;100.00;103283.09;5266757;28;20456;-70
2022/01/25 05:17:11;;;;;;;51.78;36.65;;;;;;;3.26;100.00;103277.97;5276926;28;20031;-70
2022/01/25 05:22:23;;;;;;;51.55;36.47;;;;;;;3.30;100.00;103277.06;5274914;28;20052;-71
2022/01/25 05:24:55;;;;;;;53.88;36.65;;;;;;;3.30;100.00;103279.66;5278111;28;20523;-70
2022/01/25 05:27:30;;;;;;;54.20;37.75;;;;;;;3.30;100.00;103271.88;5273075;28;20029;-70
2022/01/25 05:30:02;;;;;;;51.30;37.00;;;;;;;3.30;100.00;103270.16;5264623;28;20567;-70
2022/01/25 05:32:34;;;;;;;57.22;39.70;;;;;;;3.26;100.00;103270.19;5269167;28;20035;-70
2022/01/25 05:35:05;;;;;;;51.42;37.42;;;;;;;3.29;100.00;103273.59;5276169;28;20020;-70
2022/01/25 05:37:41;;;;;;;54.28;38.35;;;;;;;3.32;100.00;103275.28;5274004;28;20036;-70
2022/01/25 05:40:17;;;;;;;57.35;38.40;;;;;;;3.31;100.00;103278.78;5274279;28;20040;-70
2022/01/25 05:43:53;;;;;;;54.58;38.03;;;;;;;3.32;100.00;103273.56;5266117;28;20039;-70
2022/01/25 05:48:16;;;;;;;52.88;38.65;;;;;;;3.33;100.00;103269.22;5270825;28;20044;-70
2022/01/25 05:50:47;;;;;;;55.78;37.50;;;;;;;3.32;100.00;103272.69;5265254;28;20020;-70
2022/01/25 05:53:19;;;;;;;51.42;37.03;;;;;;;3.30;100.00;103275.31;5270110;28;20040;-70
2022/01/25 05:55:51;;;;;;;51.80;36.70;;;;;;;3.32;100.00;103270.97;5262352;28;20037;-70
2022/01/25 05:58:22;;;;;;;54.17;38.35;;;;;;;3.32;100.00;103270.09;5281199;28;20521;-70
2022/01/25 06:00:53;;;;;;;55.67;36.97;;;;;;;3.33;100.00;103271.81;5277434;28;20489;-71
2022/01/25 06:03:25;;;;;;;54.22;36.42;;;;;;;3.33;100.00;103266.63;5267557;28;20359;-72
2022/01/25 06:05:56;;;;;;;54.22;37.75;;;;;;;3.35;100.00;103257.13;5287259;28;20028;-70
2022/01/25 06:08:27;;;;;;;54.22;37.45;;;;;;;3.32;100.00;103264.94;5277454;28;20037;-70
2022/01/25 06:10:59;;;;;;;54.13;37.30;;;;;;;3.35;100.00;103273.50;5270969;28;20036;-71
2022/01/25 06:13:30;;;;;;;55.08;37.42;;;;;;;3.32;100.00;103265.78;5271833;28;20089;-70
2022/01/25 06:16:02;;;;;;;55.15;36.58;;;;;;;3.32;100.00;103265.78;5281732;28;20023;-70
2022/01/25 06:18:33;;;;;;;52.90;36.47;;;;;;;3.36;100.00;103271.78;5283022;28;20020;-70
2022/01/25 06:21:04;;;;;;;55.28;36.47;;;;;;;3.36;100.00;103261.41;5266162;28;20029;-70
2022/01/25 06:23:36;;;;;;;52.47;37.20;;;;;;;3.36;100.00;103264.00;5276658;28;20032;-71
2022/01/25 06:26:07;;;;;;;57.42;37.90;;;;;;;3.36;100.00;103270.03;5284112;28;20024;-71
2022/01/25 06:28:39;;;;;;;51.42;36.28;;;;;;;3.37;100.00;103260.53;5285679;28;20465;-71
2022/01/25 06:31:10;;;;;;;53.53;37.45;;;;;;;3.37;100.00;103263.09;5276811;28;20040;-71
2022/01/25 06:33:43;;;;;;;51.85;34.72;;;;;;;3.31;100.00;103261.50;5281964;28;20496;-71
2022/01/25 06:36:14;;;;;;;58.97;39.77;;;;;;;3.40;100.00;103270.84;5262474;28;20029;-71
2022/01/25 06:38:46;;;;;;;55.78;38.08;;;;;;;3.42;100.00;103269.94;5267631;28;20051;-71
2022/01/25 06:41:18;;;;;;;55.60;39.35;;;;;;;3.44;100.00;103275.09;5267059;28;20028;-70
2022/01/25 06:43:49;;;;;;;58.72;38.13;;;;;;;3.41;100.00;103281.19;5268884;28;20016;-72
2022/01/25 06:46:20;;;;;;;59.72;41.67;;;;;;;3.40;100.00;103268.25;5278795;28;20028;-71
2022/01/25 06:48:52;;;;;;;60.05;38.58;;;;;;;3.36;100.00;103259.66;5268556;28;20066;-70
2022/01/25 06:51:23;;;;;;;57.47;38.38;;;;;;;3.41;100.00;103263.06;5277325;28;20016;-71
2022/01/25 06:53:54;;;;;;;60.03;39.83;;;;;;;3.44;100.00;103271.66;5284744;28;20036;-71
2022/01/25 06:56:26;;;;;;;59.38;40.17;;;;;;;3.42;100.00;103272.53;5285178;28;20094;-71
2022/01/25 06:58:57;;;;;;;60.85;40.30;;;;;;;3.43;100.00;103268.22;5277093;28;20072;-71
2022/01/25 07:01:30;;;;;;;59.88;39.67;;;;;;;3.44;100.00;103275.09;5276043;28;20027;-71
2022/01/25 07:04:02;;;;;;;61.97;41.78;;;;;;;3.44;100.00;103284.59;5282622;28;20370;-72
2022/01/25 07:06:33;;;;;;;58.47;40.53;;;;;;;3.45;100.00;103289.78;5276276;28;20056;-70
2022/01/25 07:09:04;;;;;;;64.28;40.95;;;;;;;3.45;100.00;103287.19;5280827;28;20115;-70
2022/01/25 07:11:36;;;;;;;62.05;41.25;;;;;;;3.47;100.00;103295.78;5278799;28;20024;-70
2022/01/25 07:14:07;;;;;;;67.20;44.50;;;;;;;3.49;100.00;103299.22;5282757;28;20024;-70
2022/01/25 07:16:39;;;;;;;74.13;47.00;;;;;;;3.50;100.00;103295.75;5279385;28;20075;-69
2022/01/25 07:19:10;;;;;;;70.20;46.88;;;;;;;3.48;100.00;103281.94;5271574;28;20032;-70
2022/01/25 07:21:41;;;;;;;62.95;42.53;;;;;;;3.51;100.00;103299.19;5279423;28;20070;-70
2022/01/25 07:24:13;;;;;;;68.25;44.75;;;;;;;3.50;100.00;103280.19;5287402;28;20047;-69
2022/01/25 07:26:44;;;;;;;69.50;45.20;;;;;;;3.55;100.00;103288.75;5281048;28;20151;-69
2022/01/25 07:29:16;;;;;;;66.18;45.13;;;;;;;3.53;100.00;103287.06;5286025;28;20056;-71
2022/01/25 07:31:47;;;;;;;67.93;43.75;;;;;;;3.57;100.00;103279.22;5268438;28;20032;-69
2022/01/25 07:34:19;;;;;;;66.68;44.63;;;;;;;3.59;100.00;103285.22;5285666;28;20024;-70
2022/01/25 07:36:50;;;;;;;71.93;46.28;;;;;;;3.54;100.00;103283.59;5274248;28;20029;-70
2022/01/25 07:39:22;;;;;;;71.53;47.85;;;;;;;3.60;100.00;103286.94;5273787;28;20477;-70
2022/01/25 07:41:57;;;;;;;74.43;46.67;;;;;;;3.64;100.00;103290.34;5274755;28;20032;-70
2022/01/25 07:44:31;;;;;;;71.13;47.47;;;;;;;3.67;100.00;103290.28;5270389;28;20035;-70
2022/01/25 07:47:03;;;;;;;80.88;49.42;;;;;;;3.63;100.00;103289.47;5282665;28;20036;-70
2022/01/25 07:49:35;;;;;;;73.38;48.40;;;;;;;3.61;100.00;103282.63;5268614;28;20024;-70
2022/01/25 07:52:07;;;;;;;73.88;50.17;;;;;;;3.69;100.00;103300.63;5270116;28;20385;-71
2022/01/25 08:00:48;;;;;;;77.88;51.17;;;;;;;3.73;100.00;103297.09;5809773;22;20418;-70
2022/01/25 08:03:19;;;;;;;74.75;49.53;;;;;;;3.80;100.00;103296.13;5254800;28;20032;-70
2022/01/25 08:05:54;;;;;;;79.95;52.15;;;;;;;3.85;100.00;103296.88;5274824;28;20035;-70
2022/01/25 08:08:25;;;;;;;77.35;52.50;;;;;;;3.80;100.00;103296.13;5265893;28;20056;-70
2022/01/25 08:10:56;;;;;;;77.95;51.58;;;;;;;3.82;100.00;103297.78;5276326;28;21190;-70
2022/01/25 08:14:21;;;;;;;77.22;50.80;;;;;;;4.00;100.00;103291.44;5270016;28;20162;-70
2022/01/25 08:16:53;;;;;;;79.60;51.20;;;;;;;3.84;100.00;103280.47;5271686;28;20135;-70
2022/01/25 08:20:20;;;;;;;79.40;52.05;;;;;;;4.02;100.00;103294.88;5273421;28;20720;-70
2022/01/25 08:26:19;;;;;;;75.72;50.30;;;;;;;3.91;100.00;103309.75;5273863;28;20422;-70
2022/01/25 08:28:50;;;;;;;75.95;50.40;;;;;;;3.86;100.00;103296.88;5270993;28;20025;-70
2022/01/25 08:31:22;;;;;;;78.75;50.20;;;;;;;3.93;100.00;103302.78;5263735;28;20086;-70
2022/01/25 08:33:53;;;;;;;77.35;51.22;;;;;;;3.93;100.00;103309.72;5268747;28;20036;-70
2022/01/25 08:36:25;;;;;;;81.38;53.70;;;;;;;3.95;100.00;103308.81;5271729;28;20021;-70
2022/01/25 08:38:57;;;;;;;80.55;51.83;;;;;;;3.94;100.00;103312.31;5263686;28;20047;-70
2022/01/25 08:41:29;;;;;;;80.18;52.95;;;;;;;3.96;100.00;103301.91;5272999;28;20020;-71
2022/01/25 08:44:00;;;;;;;80.80;53.33;;;;;;;3.97;100.00;103301.00;5258316;28;20408;-70
2022/01/25 08:46:32;;;;;;;75.22;50.17;;;;;;;3.98;100.00;103303.59;5269327;28;20020;-70
2022/01/25 08:49:03;;;;;;;83.63;53.88;;;;;;;4.03;100.00;103311.28;5269408;28;20077;-70
2022/01/25 08:51:35;;;;;;;80.18;53.40;;;;;;;4.03;100.00;103312.13;5269135;28;20032;-70
2022/01/25 08:54:06;;;;;;;80.80;52.90;;;;;;;4.06;100.00;103306.91;5267794;28;20367;-70
2022/01/25 08:56:40;;;;;;;82.22;53.45;;;;;;;4.08;100.00;103314.63;5243782;28;20025;-70
2022/01/25 08:59:12;;;;;;;92.30;58.90;;;;;;;4.08;100.00;103315.50;5275055;28;20085;-70
2022/01/25 09:01:43;;;;;;;94.13;58.80;;;;;;;4.07;100.00;103313.78;5269787;28;20049;-70
2022/01/25 09:04:15;;;;;;;93.70;57.70;;;;;;;4.10;100.00;103316.34;5262844;28;20507;-70
2022/01/25 09:06:46;;;;;;;93.18;60.55;;;;;;;4.10;100.00;103318.06;5265095;28;20066;-70
2022/01/25 09:09:18;;;;;;;96.63;63.78;;;;;;;4.09;100.00;103322.41;5269370;28;20020;-72
2022/01/25 09:11:49;;;;;;;100.43;63.58;;;;;;;4.09;100.00;103316.34;5272781;28;20029;-70
2022/01/25 09:14:21;;;;;;;96.15;63.42;;;;;;;4.10;100.00;103321.53;5266560;28;20452;-71
2022/01/25 09:16:52;;;;;;;102.00;62.97;;;;;;;4.13;100.00;103326.66;5274197;28;20066;-71
2022/01/25 09:19:24;;;;;;;93.95;62.28;;;;;;;4.16;100.00;103315.34;5271430;28;20447;-70
2022/01/25 09:21:55;;;;;;;97.38;63.03;;;;;;;4.17;100.00;103323.97;5269590;28;20028;-71
2022/01/25 09:24:28;;;;;;;99.43;65.32;;;;;;;4.21;100.00;103320.47;5271767;28;20210;-71
2022/01/25 09:26:59;;;;;;;97.20;64.93;;;;;;;4.24;100.00;103323.00;5252925;28;20445;-71
2022/01/25 09:29:31;;;;;;;102.35;67.65;;;;;;;4.23;100.00;103319.53;5264197;28;20017;-71
2022/01/25 09:32:03;;;;;;;102.97;66.53;;;;;;;4.24;100.00;103330.78;5250158;28;20600;-71
2022/01/25 09:34:34;;;;;;;102.78;64.53;;;;;;;4.25;100.00;103332.50;5265034;28;20021;-70
2022/01/25 09:37:06;;;;;;;106.35;68.00;;;;;;;4.27;100.00;103322.94;5266159;28;20082;-71
2022/01/25 09:39:37;;;;;;;108.13;68.45;;;;;;;4.26;100.00;103321.25;5265840;28;20020;-71
2022/01/25 09:42:10;;;;;;;105.13;69.28;;;;;;;4.27;100.00;103312.56;5266174;28;20218;-71
2022/01/25 09:44:41;;;;;;;103.43;68.07;;;;;;;4.30;100.00;103325.50;5268490;28;20513;-70
2022/01/25 09:47:12;;;;;;;104.38;68.00;;;;;;;4.32;100.00;103337.56;5251480;28;20040;-71
2022/01/25 09:49:44;;;;;;;104.82;67.93;;;;;;;4.31;100.00;103332.38;5261622;28;20413;-70
2022/01/25 09:52:17;;;;;;;106.10;69.85;;;;;;;4.33;100.00;103328.88;5260543;28;20044;-70
2022/01/25 09:54:57;;;;;;;109.88;70.25;;;;;;;4.38;100.00;103340.03;5267617;28;20032;-71
2022/01/25 09:57:29;;;;;;;110.82;70.32;;;;;;;4.36;100.00;103339.22;5263796;28;20370;-70
2022/01/25 10:00:00;;;;;;;112.35;72.65;;;;;;;4.41;100.00;103338.25;5263661;28;20052;-71
2022/01/25 10:02:58;;;;;;;106.90;69.05;;;;;;;4.61;100.00;103341.31;5267780;28;20269;-70
2022/01/25 10:05:35;;;;;;;105.75;68.65;;;;;;;4.46;100.00;103345.06;5272019;28;20029;-71
2022/01/25 10:08:08;;;;;;;106.97;68.68;;;;;;;4.47;100.00;103343.31;5246721;28;20021;-71
2022/01/25 10:10:45;;;;;;;104.90;68.07;;;;;;;4.55;100.00;103331.94;5269207;28;20103;-71
2022/01/25 10:13:21;;;;;;;102.70;65.53;;;;;;;4.48;100.00;103335.53;5265962;28;20231;-71
2022/01/25 10:16:03;;;;;;;101.30;65.15;;;;;;;4.59;100.00;103336.19;5266627;28;20439;-71
2022/01/25 10:18:46;;;;;;;96.97;64.93;;;;;;;4.61;100.00;103342.16;5265609;28;20051;-71
2022/01/25 10:21:23;;;;;;;96.78;64.10;;;;;;;4.50;100.00;103338.94;5268867;28;20039;-71
2022/01/25 10:24:15;;;;;;;90.50;61.70;;;;;;;4.67;100.00;103338.63;5271082;28;20038;-70
2022/01/25 10:26:50;;;;;;;95.57;63.75;;;;;;;4.60;100.00;103350.84;5270519;28;20396;-71
2022/01/25 10:29:31;;;;;;;94.07;62.75;;;;;;;4.67;100.00;103349.00;5275548;28;20040;-71
2022/01/25 10:32:13;;;;;;;93.00;63.10;;;;;;;4.64;100.00;103339.53;5274211;28;20051;-70
2022/01/25 10:34:48;;;;;;;94.07;64.63;;;;;;;4.67;100.00;103337.75;5270814;28;20039;-70
2022/01/25 10:37:25;;;;;;;95.50;62.95;;;;;;;4.76;100.00;103338.41;5259412;28;20033;-71
2022/01/25 10:39:56;;;;;;;92.47;62.33;;;;;;;4.74;100.00;103341.94;5264594;28;20165;-71
2022/01/25 10:42:31;;;;;;;96.38;63.35;;;;;;;4.80;100.00;103339.22;5270204;28;20423;-71
2022/01/25 10:45:16;;;;;;;96.32;64.15;;;;;;;4.83;100.00;103340.00;5273219;28;20024;-71
2022/01/25 10:47:51;;;;;;;94.47;62.38;;;;;;;4.85;100.00;103340.00;5277698;28;20542;-71
2022/01/25 10:50:34;;;;;;;97.57;63.33;;;;;;;4.94;100.00;103338.94;5269802;28;20021;-71
2022/01/25 10:53:09;;;;;;;94.82;62.45;;;;;;;4.90;100.00;103342.50;5264632;28;20401;-72
2022/01/25 10:55:44;;;;;;;92.70;62.28;;;;;;;4.84;100.00;103339.09;5272760;28;20099;-72
2022/01/25 10:58:16;;;;;;;90.30;60.60;;;;;;;4.86;100.00;103334.75;5268018;28;20620;-72
2022/01/25 11:00:50;;;;;;;87.72;59.65;;;;;;;4.85;100.00;103327.00;5270400;28;20037;-72
2022/01/25 11:03:35;;;;;;;90.10;61.30;;;;;;;5.02;100.00;103335.28;5269207;28;20043;-72
2022/01/25 11:06:19;;;;;;;89.70;61.15;;;;;;;4.98;100.00;103320.66;5268376;28;20025;-72
2022/01/25 11:08:53;;;;;;;100.80;64.25;;;;;;;4.94;100.00;103337.19;5270330;28;20115;-72
2022/01/25 11:11:33;;;;;;;91.45;61.45;;;;;;;4.95;100.00;103338.88;5275485;28;20047;-72
2022/01/25 11:16:57;;;;;;;89.95;62.53;;;;;;;4.96;100.00;103340.59;5273455;28;20028;-72
2022/01/25 11:19:29;;;;;;;95.03;63.17;;;;;;;4.99;100.00;103343.13;5274986;28;20020;-71
2022/01/25 11:22:00;;;;;;;88.82;60.72;;;;;;;5.02;100.00;103347.41;5271523;28;20024;-70
2022/01/25 11:24:34;;;;;;;89.65;61.72;;;;;;;5.04;100.00;103345.66;5268544;28;20064;-70
2022/01/25 11:27:07;;;;;;;91.10;62.55;;;;;;;5.07;100.00;103341.22;5255269;28;20033;-71
2022/01/25 11:29:41;;;;;;;95.25;64.57;;;;;;;5.07;100.00;103332.56;5268809;28;20033;-71
2022/01/25 11:32:15;;;;;;;90.07;62.83;;;;;;;5.12;100.00;103346.34;5273254;28;20075;-71
2022/01/25 11:34:48;;;;;;;90.82;61.88;;;;;;;5.06;100.00;103338.66;5271761;28;20040;-71
2022/01/25 11:37:19;;;;;;;89.63;63.10;;;;;;;5.05;100.00;103340.41;5269052;28;20029;-71
2022/01/25 11:39:51;;;;;;;93.95;62.50;;;;;;;5.09;100.00;103349.00;5276074;28;20082;-71
2022/01/25 11:42:34;;;;;;;88.53;61.65;;;;;;;5.20;100.00;103339.22;5268801;28;20024;-71
2022/01/25 11:45:11;;;;;;;92.47;64.32;;;;;;;5.13;100.00;103340.25;5271666;28;20064;-71
2022/01/25 11:47:48;;;;;;;94.07;62.10;;;;;;;5.17;100.00;103333.25;5267485;28;20036;-71
2022/01/25 11:50:24;;;;;;;90.70;62.42;;;;;;;5.11;100.00;103335.09;5274146;28;20044;-72
2022/01/25 11:53:05;;;;;;;93.47;63.03;;;;;;;5.18;100.00;103337.53;5258412;28;20029;-71
2022/01/25 11:55:36;;;;;;;90.90;62.72;;;;;;;5.16;100.00;103339.34;5271024;28;20600;-71
2022/01/25 11:58:10;;;;;;;94.47;64.95;;;;;;;5.23;100.00;103346.13;5270150;28;20040;-71
2022/01/25 12:00:42;;;;;;;92.95;61.58;;;;;;;5.18;100.00;103337.53;5270097;28;20048;-71
2022/01/25 12:03:20;;;;;;;90.68;62.22;;;;;;;5.26;100.00;103330.41;5268034;28;20410;-71
2022/01/25 12:06:07;;;;;;;85.78;59.83;;;;;;;5.28;100.00;103328.66;5265368;28;20025;-71
2022/01/25 12:11:46;;;;;;;88.18;59.65;;;;;;;5.43;100.00;103323.09;5263385;28;20058;-71
2022/01/25 12:14:21;;;;;;;91.07;62.92;;;;;;;5.31;100.00;103321.66;5266356;28;20151;-71
2022/01/25 12:17:14;;;;;;;92.53;61.30;;;;;;;5.46;100.00;103317.00;5267480;28;20382;-71
2022/01/25 12:19:52;;;;;;;88.05;61.10;;;;;;;5.28;100.00;103318.25;5265527;28;20044;-70
2022/01/25 12:22:28;;;;;;;87.68;59.92;;;;;;;5.32;100.00;103323.34;5267684;28;20383;-71
2022/01/25 12:25:38;;;;;;;88.68;59.47;;;;;;;5.29;100.00;103309.56;5266001;28;20028;-72
2022/01/25 12:28:06;;;;;;;93.88;61.72;;;;;;;5.25;100.00;103302.72;5260758;28;20072;-70
2022/01/25 12:30:42;;;;;;;91.15;61.63;;;;;;;5.32;100.00;103317.31;5271540;28;20469;-72
2022/01/25 12:33:25;;;;;;;92.43;62.10;;;;;;;5.43;100.00;103312.69;5263999;28;20441;-72
2022/01/25 12:35:59;;;;;;;86.15;59.92;;;;;;;5.30;100.00;103300.88;5266589;28;20520;-72
2022/01/25 12:38:44;;;;;;;87.18;59.13;;;;;;;5.39;100.00;103305.03;5272530;28;20052;-71
2022/01/25 12:41:28;;;;;;;88.82;61.03;;;;;;;5.31;100.00;103297.41;5267238;28;20123;-71
2022/01/25 12:44:04;;;;;;;89.68;62.05;;;;;;;5.41;100.00;103303.22;5273079;28;20025;-71
2022/01/25 12:46:40;;;;;;;97.82;62.47;;;;;;;5.31;100.00;103295.66;5274629;28;20036;-70
2022/01/25 12:49:16;;;;;;;88.95;60.78;;;;;;;5.36;100.00;103296.38;5247795;28;20033;-70
2022/01/25 12:51:51;;;;;;;85.53;60.47;;;;;;;5.31;100.00;103297.41;5262702;28;20035;-70
2022/01/25 12:54:25;;;;;;;87.70;58.83;;;;;;;5.28;100.00;103300.06;5265500;28;20021;-70
2022/01/25 12:56:58;;;;;;;85.15;60.03;;;;;;;5.32;100.00;103293.91;5251847;28;20020;-70
2022/01/25 12:59:33;;;;;;;87.03;60.40;;;;;;;5.39;100.00;103292.03;5268131;28;20028;-70
2022/01/25 13:02:05;;;;;;;90.25;60.78;;;;;;;5.32;100.00;103289.56;5265095;28;20074;-70
2022/01/25 13:04:36;;;;;;;85.13;59.13;;;;;;;5.34;100.00;103284.31;5270763;28;20051;-71
2022/01/25 13:07:07;;;;;;;87.70;59.28;;;;;;;5.37;100.00;103279.03;5266330;28;20493;-70
2022/01/25 13:09:44;;;;;;;92.15;61.85;;;;;;;5.36;100.00;103270.41;5273232;28;20644;-70
2022/01/25 13:12:24;;;;;;;88.25;59.67;;;;;;;5.29;100.00;103267.97;5269602;28;20020;-70
2022/01/25 13:15:16;;;;;;;88.53;61.08;;;;;;;5.20;100.00;103252.63;5241445;28;20063;-70
2022/01/25 13:17:47;;;;;;;84.28;58.28;;;;;;;5.34;100.00;103263.50;5269366;28;20497;-70
2022/01/25 13:20:21;;;;;;;83.78;56.92;;;;;;;5.36;100.00;103262.59;5262395;28;20029;-70
2022/01/25 13:22:52;;;;;;;88.28;62.08;;;;;;;5.26;100.00;103263.69;5263071;28;20028;-70
2022/01/25 13:27:59;;;;;;;83.03;57.83;;;;;;;5.31;100.00;103256.66;5267640;28;20036;-70
2022/01/25 13:30:42;;;;;;;83.80;57.95;;;;;;;5.35;100.00;103252.25;5271100;28;20115;-70
2022/01/25 13:33:19;;;;;;;84.50;58.38;;;;;;;5.45;100.00;103253.72;5270033;28;20085;-70
2022/01/25 13:35:53;;;;;;;91.45;60.25;;;;;;;5.34;100.00;103253.13;5270847;28;20450;-70
2022/01/25 13:38:26;;;;;;;83.10;59.70;;;;;;;5.36;100.00;103248.75;5252175;28;20069;-70